createdAt,value
2018-05-12T00:01:33.549Z,8.80
2018-05-12T00:04:01.880Z,11.03
2018-05-12T00:06:30.962Z,8.90
2018-05-12T00:08:59.289Z,10.50
2018-05-12T00:11:27.592Z,7.97
2018-05-12T00:13:55.929Z,10.33
2018-05-12T00:16:24.232Z,9.20
2018-05-12T00:18:52.550Z,10.47
2018-05-12T00:21:20.867Z,11.17
2018-05-12T00:23:49.166Z,10.17
2018-05-12T00:26:17.476Z,10.93
2018-05-12T00:28:45.772Z,9.70
2018-05-12T00:31:14.084Z,11.30
2018-05-12T00:33:42.364Z,9.10
2018-05-12T00:36:10.685Z,10.13
2018-05-12T00:38:38.968Z,11.90
2018-05-12T00:41:07.299Z,9.83
2018-05-12T00:43:35.577Z,9.80
2018-05-12T00:46:03.909Z,8.50
2018-05-12T00:48:32.197Z,8.00
2018-05-12T00:51:01.294Z,8.67
2018-05-12T00:53:29.597Z,8.40
2018-05-12T00:55:57.908Z,9.57
2018-05-12T00:58:26.199Z,12.83
2018-05-12T01:00:54.521Z,9.47
2018-05-12T01:03:22.820Z,8.60
2018-05-12T01:05:51.132Z,8.23
2018-05-12T01:08:19.417Z,10.40
2018-05-12T01:10:47.735Z,11.07
2018-05-12T01:13:16.033Z,7.70
2018-05-12T01:15:44.452Z,9.70
2018-05-12T01:18:12.863Z,11.13
2018-05-12T01:20:41.201Z,8.80
2018-05-12T01:23:09.539Z,8.13
2018-05-12T01:25:37.913Z,10.60
2018-05-12T01:28:06.237Z,10.40
2018-05-12T01:30:34.582Z,10.77
2018-05-12T01:33:02.876Z,13.23
2018-05-12T01:35:31.196Z,10.93
2018-05-12T01:38:00.240Z,8.77
2018-05-12T01:40:28.565Z,8.80
2018-05-12T01:42:57.655Z,10.60
2018-05-12T01:45:26.734Z,10.67
2018-05-12T01:48:06.520Z,8.67
2018-05-12T01:50:35.589Z,9.23
2018-05-12T01:53:03.869Z,10.10
2018-05-12T01:55:32.983Z,8.37
2018-05-12T01:58:01.273Z,8.27
2018-05-12T02:00:29.583Z,8.77
2018-05-12T02:02:57.874Z,11.20
2018-05-12T02:05:26.197Z,9.00
2018-05-12T02:07:54.494Z,8.87
2018-05-12T02:10:22.801Z,9.57
2018-05-12T02:12:51.092Z,10.43
2018-05-12T02:15:19.425Z,9.87
2018-05-12T02:17:47.703Z,10.23
2018-05-12T02:20:16.041Z,8.97
2018-05-12T02:22:45.108Z,10.50
2018-05-12T02:25:13.416Z,10.57
2018-05-12T02:27:42.485Z,9.47
2018-05-12T02:30:10.805Z,10.03
2018-05-12T02:32:39.104Z,12.93
2018-05-12T02:35:07.396Z,9.80
2018-05-12T02:37:35.715Z,10.47
2018-05-12T02:40:04.776Z,10.00
2018-05-12T02:42:33.105Z,11.93
2018-05-12T02:45:02.167Z,10.17
2018-05-12T02:47:30.492Z,12.17
2018-05-12T02:49:58.777Z,9.97
2018-05-12T02:52:27.090Z,10.37
2018-05-12T02:54:55.380Z,11.00
2018-05-12T02:57:24.492Z,9.07
2018-05-12T02:59:53.556Z,10.23
2018-05-12T03:02:21.872Z,9.20
2018-05-12T03:04:50.157Z,8.80
2018-05-12T03:07:18.489Z,12.77
2018-05-12T03:09:46.764Z,9.83
2018-05-12T03:12:15.090Z,9.80
2018-05-12T03:14:43.388Z,11.77
2018-05-12T03:17:11.723Z,11.57
2018-05-12T03:19:40.018Z,9.90
2018-05-12T03:22:08.360Z,10.37
2018-05-12T03:24:36.681Z,12.57
2018-05-12T03:27:05.021Z,13.27
2018-05-12T03:29:33.318Z,10.37
2018-05-12T03:32:01.628Z,10.10
2018-05-12T03:34:29.916Z,12.47
2018-05-12T03:36:58.232Z,11.33
2018-05-12T03:39:26.522Z,11.43
2018-05-12T03:41:55.612Z,10.10
2018-05-12T03:44:24.705Z,9.43
2018-05-12T03:46:53.808Z,9.73
2018-05-12T03:49:22.101Z,12.90
2018-05-12T03:51:51.181Z,12.87
2018-05-12T03:54:19.456Z,9.87
2018-05-12T03:56:47.772Z,10.83
2018-05-12T03:59:16.048Z,10.37
2018-05-12T04:01:44.356Z,9.80
2018-05-12T04:04:24.567Z,11.30
2018-05-12T04:07:04.648Z,10.90
2018-05-12T04:09:44.784Z,11.30
2018-05-12T04:12:24.892Z,11.63
2018-05-12T04:14:53.195Z,12.63
2018-05-12T04:17:22.295Z,10.90
2018-05-12T04:19:50.598Z,10.20
2018-05-12T04:22:18.919Z,11.37
2018-05-12T04:24:47.227Z,11.67
2018-05-12T04:27:16.309Z,11.20
2018-05-12T04:29:44.633Z,12.07
2018-05-12T04:32:12.916Z,12.13
2018-05-12T04:34:41.234Z,10.47
2018-05-12T04:37:09.530Z,10.13
2018-05-12T04:39:38.618Z,10.57
2018-05-12T04:42:06.900Z,11.00
2018-05-12T04:44:35.975Z,10.50
2018-05-12T04:47:04.276Z,10.30
2018-05-12T04:49:32.661Z,10.83
2018-05-12T04:52:00.894Z,11.27
2018-05-12T04:54:29.207Z,11.07
2018-05-12T04:56:58.272Z,11.10
2018-05-12T04:59:26.604Z,12.93
2018-05-12T05:01:54.929Z,12.53
2018-05-12T05:04:23.241Z,11.90
2018-05-12T05:06:52.297Z,12.97
2018-05-12T05:09:20.617Z,14.43
2018-05-12T05:11:48.908Z,15.23
2018-05-12T05:14:17.224Z,12.20
2018-05-12T05:16:45.522Z,14.10
2018-05-12T05:19:14.633Z,13.03
2018-05-12T05:21:43.696Z,12.90
2018-05-12T05:24:12.008Z,14.53
2018-05-12T05:26:41.084Z,12.67
2018-05-12T05:29:09.418Z,12.67
2018-05-12T05:31:37.709Z,14.23
2018-05-12T05:34:06.045Z,14.20
2018-05-12T05:36:34.389Z,13.47
2018-05-12T05:39:02.704Z,14.37
2018-05-12T05:41:31.098Z,15.83
2018-05-12T05:43:59.440Z,13.97
2018-05-12T05:46:28.512Z,13.47
2018-05-12T05:48:56.849Z,15.53
2018-05-12T05:51:25.160Z,13.83
2018-05-12T05:53:53.524Z,15.20
2018-05-12T05:56:21.810Z,14.43
2018-05-12T05:58:50.155Z,18.27
2018-05-12T06:01:18.440Z,18.07
2018-05-12T06:03:46.764Z,14.97
2018-05-12T06:06:15.052Z,16.60
2018-05-12T06:08:44.151Z,16.37
2018-05-12T06:11:13.242Z,16.73
2018-05-12T06:13:41.544Z,16.63
2018-05-12T06:16:09.880Z,14.33
2018-05-12T06:18:38.184Z,16.50
2018-05-12T06:21:06.523Z,15.13
2018-05-12T06:23:34.819Z,13.37
2018-05-12T06:26:03.233Z,17.83
2018-05-12T06:28:31.591Z,15.60
2018-05-12T06:30:59.969Z,16.30
2018-05-12T06:33:29.177Z,13.93
2018-05-12T06:35:57.538Z,15.77
2018-05-12T06:38:25.894Z,21.37
2018-05-12T06:40:54.234Z,15.27
2018-05-12T06:43:23.349Z,23.37
2018-05-12T06:45:51.746Z,17.43
2018-05-12T06:48:20.098Z,16.93
2018-05-12T06:50:48.432Z,16.43
2018-05-12T06:53:16.719Z,17.30
2018-05-12T06:55:45.832Z,15.90
2018-05-12T06:58:14.133Z,14.47
2018-05-12T07:00:43.646Z,17.30
2018-05-12T07:03:12.007Z,15.37
2018-05-12T07:05:40.405Z,17.90
2018-05-12T07:08:10.687Z,21.00
2018-05-12T07:10:39.136Z,18.43
2018-05-12T07:13:07.494Z,18.20
2018-05-12T07:15:35.895Z,18.63
2018-05-12T07:18:05.109Z,16.83
2018-05-12T07:20:33.566Z,14.53
2018-05-12T07:23:01.920Z,16.63
2018-05-12T07:25:30.316Z,14.27
2018-05-12T07:27:59.436Z,14.53
2018-05-12T07:30:27.971Z,13.50
2018-05-12T07:32:56.314Z,13.57
2018-05-12T07:35:24.736Z,14.37
2018-05-12T07:37:53.087Z,20.07
2018-05-12T07:40:21.484Z,14.87
2018-05-12T07:42:49.911Z,13.43
2018-05-12T07:48:18.334Z,6.27
2018-05-12T07:50:48.417Z,8.07
2018-05-12T07:53:18.244Z,7.37
2018-05-12T07:55:48.084Z,10.57
2018-05-12T07:58:17.886Z,11.93
2018-05-12T08:00:47.725Z,10.60
2018-05-12T08:03:15.940Z,10.30
2018-05-12T08:05:44.444Z,11.83
2018-05-12T08:08:12.768Z,23.97
2018-05-12T08:10:41.159Z,16.27
2018-05-12T08:13:09.513Z,17.07
2018-05-12T08:15:37.836Z,18.33
2018-05-12T08:18:06.131Z,23.40
2018-05-12T08:20:35.229Z,20.20
2018-05-12T08:23:03.540Z,21.00
2018-05-12T08:25:32.629Z,23.37
2018-05-12T08:28:01.700Z,20.97
2018-05-12T08:30:30.029Z,22.17
2018-05-12T08:32:58.333Z,18.13
2018-05-12T08:35:26.672Z,19.33
2018-05-12T08:37:55.003Z,16.80
2018-05-12T08:40:23.413Z,18.33
2018-05-12T08:42:51.748Z,16.60
2018-05-12T08:45:20.109Z,17.73
2018-05-12T08:47:49.313Z,19.13
2018-05-12T08:50:17.652Z,19.30
2018-05-12T08:52:46.403Z,17.53
2018-05-12T08:55:15.205Z,19.20
2018-05-12T08:57:43.551Z,16.23
2018-05-12T09:00:11.964Z,13.23
2018-05-12T09:02:40.490Z,15.73
2018-05-12T09:05:08.903Z,17.57
2018-05-12T09:07:37.422Z,16.07
2018-05-12T09:10:06.732Z,15.57
2018-05-12T09:12:35.169Z,12.17
2018-05-12T09:15:03.521Z,13.37
2018-05-12T09:17:31.877Z,11.13
2018-05-12T09:20:00.292Z,8.43
2018-05-12T09:22:29.425Z,11.93
2018-05-12T09:24:57.853Z,11.63
2018-05-12T09:27:26.255Z,9.53
2018-05-12T09:29:55.180Z,10.50
2018-05-12T09:32:24.312Z,12.07
2018-05-12T09:34:52.655Z,12.07
2018-05-12T09:37:21.800Z,14.40
2018-05-12T09:39:50.153Z,10.93
2018-05-12T09:42:18.615Z,12.17
2018-05-12T09:44:46.860Z,13.73
2018-05-12T09:47:15.181Z,12.57
2018-05-12T09:49:43.493Z,12.77
2018-05-12T09:52:12.111Z,17.30
2018-05-12T09:54:40.413Z,11.10
2018-05-12T09:57:09.514Z,10.57
2018-05-12T09:59:37.929Z,12.80
2018-05-12T10:02:06.231Z,15.23
2018-05-12T10:04:34.580Z,11.33
2018-05-12T10:07:02.944Z,16.47
2018-05-12T10:09:31.362Z,13.13
2018-05-12T10:11:59.720Z,14.10
2018-05-12T10:14:28.094Z,12.50
2018-05-12T10:16:56.515Z,11.90
2018-05-12T10:19:24.894Z,10.83
2018-05-12T10:21:53.330Z,10.50
2018-05-12T10:24:21.680Z,10.17
2018-05-12T10:26:50.800Z,12.07
2018-05-12T10:29:19.112Z,9.77
2018-05-12T10:31:47.473Z,8.77
2018-05-12T10:34:15.840Z,9.97
2018-05-12T10:36:44.201Z,9.20
2018-05-12T10:39:12.610Z,7.97
2018-05-12T10:41:40.901Z,7.70
2018-05-12T10:44:09.340Z,7.60
2018-05-12T10:46:37.676Z,8.67
2018-05-12T10:49:06.028Z,9.67
2018-05-12T10:51:34.340Z,7.50
2018-05-12T10:54:02.656Z,10.17
2018-05-12T10:56:30.940Z,8.00
2018-05-12T10:58:59.306Z,7.37
2018-05-12T11:01:27.574Z,9.43
2018-05-12T11:03:56.678Z,8.37
2018-05-12T11:06:25.733Z,9.83
2018-05-12T11:08:54.154Z,8.63
2018-05-12T11:11:22.492Z,9.17
2018-05-12T11:13:50.866Z,9.23
2018-05-12T11:16:19.275Z,7.70
2018-05-12T11:18:48.404Z,9.43
2018-05-12T11:21:16.758Z,8.57
2018-05-12T11:23:45.852Z,7.87
2018-05-12T11:26:14.945Z,6.43
2018-05-12T11:28:44.110Z,7.17
2018-05-12T11:31:12.450Z,8.17
2018-05-12T11:33:40.798Z,7.60
2018-05-12T11:36:09.912Z,6.17
2018-05-12T11:38:38.370Z,8.03
2018-05-12T11:41:06.698Z,7.33
2018-05-12T11:43:35.142Z,6.80
2018-05-12T11:46:04.273Z,7.00
2018-05-12T11:48:37.986Z,5.93
2018-05-12T11:51:06.309Z,8.30
2018-05-12T11:53:35.492Z,7.47
2018-05-12T11:56:03.829Z,6.90
2018-05-12T11:58:32.187Z,5.73
2018-05-12T12:01:00.556Z,6.73
2018-05-12T12:03:29.001Z,9.03
2018-05-12T12:05:57.349Z,6.40
2018-05-12T12:08:25.703Z,6.63
2018-05-12T12:10:54.042Z,8.77
2018-05-12T12:13:23.188Z,6.63
2018-05-12T12:15:52.538Z,6.50
2018-05-12T12:18:20.941Z,8.80
2018-05-12T12:20:50.040Z,6.20
2018-05-12T12:23:19.123Z,7.67
2018-05-12T12:25:47.413Z,6.60
2018-05-12T12:28:16.499Z,7.10
2018-05-12T12:30:45.572Z,5.70
2018-05-12T12:33:13.925Z,6.87
2018-05-12T12:35:42.189Z,5.40
2018-05-12T12:38:10.480Z,6.13
2018-05-12T12:40:38.785Z,8.00
2018-05-12T12:43:07.068Z,6.80
2018-05-12T12:45:35.391Z,4.23
2018-05-12T12:48:03.693Z,4.40
2018-05-12T12:50:32.020Z,4.50
2018-05-12T12:53:00.321Z,4.33
2018-05-12T12:55:28.636Z,7.23
2018-05-12T12:57:56.922Z,6.27
2018-05-12T13:00:25.249Z,5.03
2018-05-12T13:02:53.545Z,8.17
2018-05-12T13:05:21.852Z,5.10
2018-05-12T13:07:50.145Z,5.27
2018-05-12T13:10:18.458Z,7.50
2018-05-12T13:12:46.747Z,4.83
2018-05-12T13:15:15.071Z,6.13
2018-05-12T13:17:43.361Z,5.30
2018-05-12T13:20:11.676Z,5.90
2018-05-12T13:22:39.960Z,5.10
2018-05-12T13:25:08.280Z,5.27
2018-05-12T13:27:36.564Z,7.40
2018-05-12T13:30:04.899Z,5.50
2018-05-12T13:32:33.176Z,4.73
2018-05-12T13:35:01.489Z,4.37
2018-05-12T13:37:29.780Z,5.80
2018-05-12T13:39:58.853Z,5.47
2018-05-12T13:42:27.137Z,5.80
2018-05-12T13:44:57.069Z,5.90
2018-05-12T13:47:26.107Z,8.23
2018-05-12T13:49:54.388Z,4.00
2018-05-12T13:52:22.709Z,5.07
2018-05-12T13:54:51.016Z,4.37
2018-05-12T13:57:19.356Z,5.00
2018-05-12T13:59:47.653Z,3.33
2018-05-12T14:02:16.709Z,4.77
2018-05-12T14:04:45.020Z,3.53
2018-05-12T14:07:13.329Z,4.43
2018-05-12T14:09:41.640Z,3.13
2018-05-12T14:12:09.923Z,3.20
2018-05-12T14:14:38.212Z,3.73
2018-05-12T14:17:06.524Z,5.23
2018-05-12T14:19:35.568Z,3.83
2018-05-12T14:22:03.881Z,4.53
2018-05-12T14:24:32.160Z,3.87
2018-05-12T14:27:01.231Z,3.23
2018-05-12T14:29:29.532Z,5.53
2018-05-12T14:34:33.218Z,3.67
2018-05-12T14:37:01.547Z,4.67
2018-05-12T14:39:29.844Z,5.20
2018-05-12T14:41:58.147Z,5.60
2018-05-12T14:44:26.428Z,4.00
2018-05-12T14:46:54.766Z,3.87
2018-05-12T14:49:23.051Z,3.27
2018-05-12T14:51:51.367Z,2.80
2018-05-12T14:54:19.651Z,4.53
2018-05-12T14:56:47.982Z,4.60
2018-05-12T14:59:16.326Z,4.07
2018-05-12T15:01:44.776Z,6.00
2018-05-12T15:04:13.110Z,3.63
2018-05-12T15:06:41.462Z,5.27
2018-05-12T15:09:10.540Z,4.73
2018-05-12T15:11:38.844Z,3.33
2018-05-12T15:14:07.143Z,5.10
2018-05-12T15:16:35.481Z,3.93
2018-05-12T15:19:03.763Z,3.63
2018-05-12T15:21:32.082Z,3.00
2018-05-12T15:24:00.356Z,3.53
2018-05-12T15:26:28.677Z,3.43
2018-05-12T15:28:56.963Z,3.40
2018-05-12T15:31:25.268Z,3.20
2018-05-12T15:33:53.559Z,4.50
2018-05-12T15:36:21.938Z,3.17
2018-05-12T15:38:50.261Z,4.60
2018-05-12T15:41:18.571Z,3.83
2018-05-12T15:43:47.836Z,5.33
2018-05-12T15:46:15.956Z,4.17
2018-05-12T15:48:44.239Z,4.00
2018-05-12T15:51:12.565Z,4.57
2018-05-12T15:53:40.848Z,3.80
2018-05-12T15:56:09.157Z,6.50
2018-05-12T15:58:37.461Z,5.07
2018-05-12T16:01:05.775Z,5.00
2018-05-12T16:03:34.084Z,5.13
2018-05-12T16:06:03.168Z,3.73
2018-05-12T16:08:31.460Z,4.60
2018-05-12T16:11:00.540Z,5.73
2018-05-12T16:13:28.828Z,5.23
2018-05-12T16:15:57.893Z,4.53
2018-05-12T16:18:26.200Z,3.47
2018-05-12T16:20:55.252Z,5.40
2018-05-12T16:23:23.607Z,4.03
2018-05-12T16:25:51.903Z,3.23
2018-05-12T16:28:20.228Z,2.70
2018-05-12T16:30:49.286Z,4.63
2018-05-12T16:33:17.625Z,4.80
2018-05-12T16:35:45.988Z,4.83
2018-05-12T16:38:14.263Z,9.23
2018-05-12T16:40:43.323Z,3.60
2018-05-12T16:43:11.653Z,3.10
2018-05-12T16:45:39.945Z,5.07
2018-05-12T16:48:08.262Z,3.73
2018-05-12T16:50:36.646Z,4.80
2018-05-12T16:53:05.674Z,2.73
2018-05-12T16:55:33.976Z,2.70
2018-05-12T16:58:02.276Z,2.80
2018-05-12T17:00:30.558Z,3.10
2018-05-12T17:02:58.872Z,5.60
2018-05-12T17:05:27.149Z,3.57
2018-05-12T17:07:55.455Z,5.27
2018-05-12T17:10:23.732Z,4.60
2018-05-12T17:12:52.046Z,3.27
2018-05-12T17:15:20.354Z,9.13
2018-05-12T17:17:49.438Z,2.77
2018-05-12T17:20:18.537Z,3.40
2018-05-12T17:22:46.819Z,3.37
2018-05-12T17:25:15.875Z,3.37
2018-05-12T17:27:44.188Z,4.87
2018-05-12T17:30:13.245Z,4.40
2018-05-12T17:32:41.558Z,3.07
2018-05-12T17:35:10.609Z,3.80
2018-05-12T17:37:38.936Z,3.40
2018-05-12T17:40:07.992Z,3.90
2018-05-12T17:42:36.298Z,3.90
2018-05-12T17:45:04.573Z,8.37
2018-05-12T17:47:32.892Z,4.43
2018-05-12T17:50:01.262Z,4.10
2018-05-12T17:52:29.527Z,5.80
2018-05-12T17:54:58.578Z,5.13
2018-05-12T17:57:26.883Z,6.03
2018-05-12T17:59:56.169Z,3.93
2018-05-12T18:02:24.476Z,3.70
2018-05-12T18:04:53.533Z,11.17
2018-05-12T18:07:21.823Z,5.27
2018-05-12T18:09:50.139Z,4.60
2018-05-12T18:12:18.456Z,4.10
2018-05-12T18:14:46.761Z,12.33
2018-05-12T18:17:15.120Z,7.10
2018-05-12T18:19:43.384Z,4.73
2018-05-12T18:22:11.664Z,3.67
2018-05-12T18:24:39.993Z,3.93
2018-05-12T18:27:08.276Z,4.43
2018-05-12T18:29:36.602Z,4.87
2018-05-12T18:32:04.877Z,4.47
2018-05-12T18:34:33.188Z,5.63
2018-05-12T18:37:01.483Z,6.53
2018-05-12T18:39:29.792Z,5.30
2018-05-12T18:41:58.080Z,6.53
2018-05-12T18:44:26.389Z,4.63
2018-05-12T18:46:55.440Z,3.73
2018-05-12T18:49:23.760Z,6.93
2018-05-12T18:51:52.036Z,3.93
2018-05-12T18:54:20.350Z,4.20
2018-05-12T18:56:48.637Z,4.27
2018-05-12T18:59:16.953Z,4.77
2018-05-12T19:01:45.229Z,6.67
2018-05-12T19:04:13.533Z,4.00
2018-05-12T19:06:41.845Z,6.83
2018-05-12T19:09:10.169Z,7.07
2018-05-12T19:11:38.449Z,5.43
2018-05-12T19:14:06.753Z,5.07
2018-05-12T19:16:35.037Z,7.70
2018-05-12T19:19:03.364Z,10.87
2018-05-12T19:21:31.668Z,6.30
2018-05-12T19:24:00.749Z,4.47
2018-05-12T19:26:29.032Z,4.23
2018-05-12T19:28:57.376Z,5.80
2018-05-12T19:31:26.434Z,4.20
2018-05-12T19:33:55.502Z,4.10
2018-05-12T19:36:23.781Z,4.63
2018-05-12T19:38:52.093Z,7.47
2018-05-12T19:41:20.376Z,5.73
2018-05-12T19:43:48.699Z,5.90
2018-05-12T19:46:17.021Z,7.63
2018-05-12T19:48:45.307Z,5.67
2018-05-12T19:51:13.616Z,7.67
2018-05-12T19:53:41.904Z,6.03
2018-05-12T19:56:10.234Z,5.57
2018-05-12T19:58:38.517Z,6.30
2018-05-12T20:01:06.826Z,6.60
2018-05-12T20:03:35.116Z,9.77
2018-05-12T20:06:03.423Z,8.40
2018-05-12T20:08:32.473Z,5.00
2018-05-12T20:11:00.794Z,4.50
2018-05-12T20:13:29.843Z,4.57
2018-05-12T20:15:58.174Z,6.50
2018-05-12T20:18:27.203Z,5.07
2018-05-12T20:20:55.525Z,9.40
2018-05-12T20:23:23.809Z,4.43
2018-05-12T20:25:52.892Z,4.97
2018-05-12T20:28:21.172Z,4.67
2018-05-12T20:30:49.496Z,6.37
2018-05-12T20:33:17.797Z,7.17
2018-05-12T20:35:46.096Z,5.13
2018-05-12T20:38:14.367Z,6.30
2018-05-12T20:40:42.709Z,5.37
2018-05-12T20:43:11.006Z,5.63
2018-05-12T20:45:39.320Z,5.33
2018-05-12T20:48:08.375Z,8.93
2018-05-12T20:50:36.698Z,6.07
2018-05-12T20:53:05.756Z,6.07
2018-05-12T20:55:34.056Z,7.90
2018-05-12T20:58:02.342Z,6.63
2018-05-12T21:00:31.420Z,7.67
2018-05-12T21:02:59.719Z,5.50
2018-05-12T21:05:28.793Z,6.33
2018-05-12T21:07:57.080Z,5.70
2018-05-12T21:10:25.396Z,6.93
2018-05-12T21:12:53.679Z,6.73
2018-05-12T21:15:21.984Z,7.97
2018-05-12T21:17:50.267Z,5.93
2018-05-12T21:20:18.573Z,6.33
2018-05-12T21:22:47.627Z,6.70
2018-05-12T21:25:15.916Z,6.57
2018-05-12T21:27:44.244Z,6.07
2018-05-12T21:30:12.536Z,8.30
2018-05-12T21:32:40.865Z,6.97
2018-05-12T21:35:10.079Z,9.50
2018-05-12T21:37:39.155Z,9.83
2018-05-12T21:40:07.434Z,6.93
2018-05-12T21:42:35.740Z,7.23
2018-05-12T21:45:04.045Z,8.20
2018-05-12T21:47:32.370Z,9.87
2018-05-12T21:50:00.648Z,9.40
2018-05-12T21:52:28.968Z,10.37
2018-05-12T21:54:57.276Z,9.90
2018-05-12T21:57:25.607Z,10.60
2018-05-12T21:59:53.896Z,7.23
2018-05-12T22:02:22.225Z,7.27
2018-05-12T22:04:50.517Z,8.77
2018-05-12T22:07:18.829Z,7.10
2018-05-12T22:09:47.115Z,7.33
2018-05-12T22:12:15.425Z,7.27
2018-05-12T22:14:43.744Z,6.53
2018-05-12T22:17:12.067Z,8.30
2018-05-12T22:19:41.112Z,7.20
2018-05-12T22:22:10.192Z,8.60
2018-05-12T22:24:39.259Z,11.17
2018-05-12T22:27:07.568Z,10.40
2018-05-12T22:29:36.628Z,9.50
2018-05-12T22:32:05.700Z,8.80
2018-05-12T22:34:33.983Z,10.20
2018-05-12T22:37:02.304Z,10.07
2018-05-12T22:39:30.597Z,11.33
2018-05-12T22:41:58.923Z,11.77
2018-05-12T22:44:27.212Z,10.40
2018-05-12T22:46:55.551Z,10.90
2018-05-12T22:49:23.852Z,8.50
2018-05-12T22:51:52.164Z,8.43
2018-05-12T22:54:20.446Z,9.17
2018-05-12T22:56:48.749Z,10.40
2018-05-12T22:59:17.050Z,10.27
2018-05-12T23:01:45.336Z,10.87
2018-05-12T23:04:13.645Z,9.77
2018-05-12T23:06:41.940Z,9.40
2018-05-12T23:09:11.021Z,8.50
2018-05-12T23:11:39.300Z,12.00
2018-05-12T23:14:07.605Z,8.40
2018-05-12T23:16:36.658Z,7.67
2018-05-12T23:19:04.973Z,7.60
2018-05-12T23:24:07.875Z,6.13
2018-05-12T23:26:36.161Z,6.00
2018-05-12T23:29:04.470Z,7.40
2018-05-12T23:31:32.772Z,9.20
2018-05-12T23:34:01.089Z,6.47
2018-05-12T23:36:30.141Z,6.60
2018-05-12T23:38:58.470Z,10.63
2018-05-12T23:41:26.771Z,9.20
2018-05-12T23:43:55.089Z,5.23
2018-05-12T23:46:23.395Z,6.23
2018-05-12T23:48:52.468Z,6.30
2018-05-12T23:51:20.832Z,6.23
2018-05-12T23:53:49.107Z,7.43
2018-05-12T23:56:17.392Z,5.10
2018-05-12T23:58:45.739Z,6.73
